Wetterdaten: Woche 23.03.15 - 29.03.15 (KW13)
Datum Zeit Temp. A. Feuchte A. Luftdruck Regen Wind Richtung Sonnenschein ET UV Solar Taupunkt Windchill Windben Empfang
23.03.2015 00:00 3,5 C 73 % 1020,0 hPa 0,0 l/m 4,0 km/h (1 Bft) O 0,00 h 0,000 mm 0,0 UV-I 0 W/m -0,9 C 3,4 C 5,9 km/h (2 Bft) 0,00 %
23.03.2015 01:00 2,7 C 72 % 1019,8 hPa 0,0 l/m 3,9 km/h (1 Bft) O 0,00 h 0,000 mm 0,0 UV-I 0 W/m -1,8 C 1,8 C 7,9 km/h (2 Bft) 0,00 %
23.03.2015 02:00 1,9 C 68 % 1019,4 hPa 0,0 l/m 8,8 km/h (2 Bft) O-SO 0,00 h 0,000 mm 0,0 UV-I 0 W/m -3,3 C -0,5 C 11,9 km/h (2 Bft) 0,00 %
23.03.2015 03:00 1,4 C 69 % 1019,3 hPa 0,0 l/m 8,2 km/h (2 Bft) O 0,00 h 0,000 mm 0,0 UV-I 0 W/m -3,8 C -0,9 C 11,9 km/h (2 Bft) 0,00 %
23.03.2015 04:00 1,1 C 69 % 1019,3 hPa 0,0 l/m 8,2 km/h (2 Bft) SO 0,00 h 0,000 mm 0,0 UV-I 0 W/m -3,9 C -0,8 C 11,9 km/h (2 Bft) 0,00 %
23.03.2015 05:00 1,0 C 69 % 1019,3 hPa 0,0 l/m 4,9 km/h (1 Bft) O 0,00 h 0,000 mm 0,0 UV-I 0 W/m -4,1 C 0,5 C 8,9 km/h (2 Bft) 0,00 %
23.03.2015 06:00 0,8 C 70 % 1019,4 hPa 0,0 l/m 1,5 km/h (1 Bft) O-NO 0,00 h 0,000 mm 0,0 UV-I 12 W/m -4,1 C 0,8 C 4,0 km/h (1 Bft) 0,00 %
23.03.2015 07:00 1,2 C 69 % 1019,3 hPa 0,0 l/m 4,1 km/h (1 Bft) O-SO 0,00 h 0,000 mm 1,0 UV-I 54 W/m -4,0 C 1,2 C 6,9 km/h (2 Bft) 0,00 %
23.03.2015 08:00 1,9 C 67 % 1019,1 hPa 0,0 l/m 6,8 km/h (2 Bft) O 0,00 h 0,000 mm 1,0 UV-I 129 W/m -3,7 C 0,4 C 10,9 km/h (2 Bft) 0,00 %
23.03.2015 09:00 2,2 C 67 % 1019,1 hPa 0,0 l/m 5,2 km/h (1 Bft) O-NO 0,00 h 0,000 mm 1,7 UV-I 146 W/m -3,4 C 1,3 C 8,9 km/h (2 Bft) 0,00 %
23.03.2015 10:00 2,6 C 70 % 1019,1 hPa 0,0 l/m 8,3 km/h (2 Bft) O-SO 0,00 h 0,000 mm 2,0 UV-I 180 W/m -2,4 C 0,2 C 9,9 km/h (2 Bft) 0,00 %
23.03.2015 11:00 3,6 C 69 % 1018,2 hPa 0,0 l/m 3,2 km/h (1 Bft) O 0,00 h 0,000 mm 2,7 UV-I 262 W/m -1,5 C 3,6 C 4,9 km/h (1 Bft) 0,00 %
23.03.2015 12:00 4,9 C 68 % 1017,2 hPa 0,0 l/m 2,5 km/h (1 Bft) O 0,00 h 0,000 mm 3,0 UV-I 299 W/m -0,6 C 4,6 C 5,0 km/h (1 Bft) 0,00 %
23.03.2015 13:00 6,2 C 64 % 1016,0 hPa 0,0 l/m 0,1 km/h (0 Bft) O-NO 0,25 h 0,000 mm 3,0 UV-I 339 W/m -0,2 C 6,2 C 1,0 km/h (0 Bft) 0,00 %
23.03.2015 14:00 6,4 C 63 % 1015,0 hPa 0,0 l/m 1,1 km/h (0 Bft) N 0,25 h 0,000 mm 2,0 UV-I 273 W/m -0,2 C 6,4 C 2,0 km/h (1 Bft) 0,00 %
23.03.2015 15:00 6,7 C 64 % 1014,1 hPa 0,0 l/m 0,7 km/h (0 Bft) O-NO 1,00 h 0,000 mm 2,0 UV-I 415 W/m 0,4 C 6,7 C 2,0 km/h (1 Bft) 0,00 %
23.03.2015 16:00 7,7 C 62 % 1013,1 hPa 0,0 l/m 0,9 km/h (0 Bft) N 1,00 h 0,000 mm 1,0 UV-I 355 W/m 0,9 C 7,7 C 2,0 km/h (1 Bft) 0,00 %
23.03.2015 17:00 7,4 C 63 % 1012,5 hPa 0,0 l/m 0,0 km/h (0 Bft) N 1,00 h 0,000 mm 1,0 UV-I 126 W/m 0,8 C 7,4 C 0,0 km/h (0 Bft) 0,00 %
23.03.2015 18:00 5,3 C 76 % 1012,3 hPa 0,0 l/m 0,0 km/h (0 Bft) N 0,25 h 0,000 mm 0,0 UV-I 3 W/m 1,5 C 5,3 C 0,0 km/h (0 Bft) 0,00 %
23.03.2015 19:00 3,6 C 83 % 1012,4 hPa 0,0 l/m 0,0 km/h (0 Bft) N 0,00 h 0,000 mm 0,0 UV-I 0 W/m 1,0 C 3,6 C 0,0 km/h (0 Bft) 0,00 %
23.03.2015 20:00 2,9 C 84 % 1012,4 hPa 0,0 l/m 0,0 km/h (0 Bft) N 0,00 h 0,000 mm 0,0 UV-I 0 W/m 0,4 C 2,9 C 0,0 km/h (0 Bft) 0,00 %
23.03.2015 21:00 2,1 C 83 % 1012,4 hPa 0,0 l/m 0,0 km/h (0 Bft) N 0,00 h 0,000 mm 0,0 UV-I 0 W/m -0,6 C 2,1 C 0,0 km/h (0 Bft) 0,00 %
23.03.2015 22:00 1,6 C 84 % 1011,9 hPa 0,0 l/m 0,0 km/h (0 Bft) N 0,00 h 0,000 mm 0,0 UV-I 0 W/m -0,9 C 1,6 C 0,0 km/h (0 Bft) 0,00 %
23.03.2015 23:00 0,9 C 85 % 1011,8 hPa 0,0 l/m 0,0 km/h (0 Bft) N 0,00 h 0,000 mm 0,0 UV-I 0 W/m -1,3 C 0,9 C 0,0 km/h (0 Bft) 0,00 %
24.03.2015 00:00 0,6 C 86 % 1011,5 hPa 0,0 l/m 0,0 km/h (0 Bft) N 0,00 h 0,000 mm 0,0 UV-I 0 W/m -1,4 C 0,6 C 0,0 km/h (0 Bft) 0,00 %
24.03.2015 01:00 0,2 C 87 % 1011,1 hPa 0,0 l/m 0,0 km/h (0 Bft) N 0,00 h 0,000 mm 0,0 UV-I 0 W/m -1,7 C 0,2 C 0,0 km/h (0 Bft) 0,00 %
24.03.2015 02:00 -0,1 C 87 % 1010,8 hPa 0,0 l/m 0,0 km/h (0 Bft) N 0,00 h 0,000 mm 0,0 UV-I 0 W/m -1,9 C -0,1 C 0,0 km/h (0 Bft) 0,00 %
24.03.2015 03:00 -0,6 C 88 % 1010,5 hPa 0,0 l/m 0,0 km/h (0 Bft) N 0,00 h 0,000 mm 0,0 UV-I 0 W/m -2,4 C -0,6 C 0,0 km/h (0 Bft) 0,00 %
24.03.2015 04:00 -0,4 C 88 % 1010,4 hPa 0,0 l/m 0,0 km/h (0 Bft) N 0,00 h 0,000 mm 0,0 UV-I 0 W/m -2,2 C -0,4 C 0,0 km/h (0 Bft) 0,00 %
24.03.2015 05:00 -1,0 C 88 % 1010,7 hPa 0,0 l/m 0,0 km/h (0 Bft) N 0,00 h 0,000 mm 0,0 UV-I 0 W/m -2,8 C -1,0 C 0,0 km/h (0 Bft) 0,00 %
24.03.2015 06:00 -1,3 C 88 % 1010,9 hPa 0,0 l/m 0,0 km/h (0 Bft) N 0,00 h 0,000 mm 1,0 UV-I 25 W/m -3,0 C -1,3 C 0,0 km/h (0 Bft) 0,00 %
24.03.2015 07:00 0,1 C 87 % 1011,0 hPa 0,0 l/m 0,0 km/h (0 Bft) N 0,00 h 0,000 mm 1,0 UV-I 118 W/m -1,8 C 0,1 C 0,0 km/h (0 Bft) 0,00 %
24.03.2015 08:00 2,6 C 86 % 1010,6 hPa 0,0 l/m 0,0 km/h (0 Bft) N 0,00 h 0,000 mm 2,0 UV-I 172 W/m 0,4 C 2,6 C 0,0 km/h (0 Bft) 0,00 %
24.03.2015 09:00 5,8 C 74 % 1010,0 hPa 0,0 l/m 0,0 km/h (0 Bft) N 0,25 h 0,000 mm 2,7 UV-I 269 W/m 1,5 C 5,8 C 0,0 km/h (0 Bft) 0,00 %
24.03.2015 10:00 5,9 C 75 % 1009,9 hPa 0,0 l/m 0,0 km/h (0 Bft) N 0,00 h 0,000 mm 2,0 UV-I 205 W/m 1,9 C 5,9 C 0,0 km/h (0 Bft) 0,00 %
24.03.2015 11:00 6,5 C 77 % 1009,5 hPa 0,0 l/m 0,4 km/h (0 Bft) O-SO 0,25 h 0,000 mm 3,3 UV-I 268 W/m 2,6 C 6,5 C 1,0 km/h (0 Bft) 0,00 %
24.03.2015 12:00 9,6 C 64 % 1008,3 hPa 0,0 l/m 0,7 km/h (0 Bft) O-SO 1,00 h 0,000 mm 4,0 UV-I 500 W/m 3,1 C 9,6 C 3,0 km/h (1 Bft) 0,00 %
24.03.2015 13:00 11,4 C 58 % 1007,2 hPa 0,0 l/m 3,1 km/h (1 Bft) O-SO 1,00 h 0,000 mm 2,3 UV-I 403 W/m 3,3 C 11,4 C 5,9 km/h (2 Bft) 0,00 %
24.03.2015 14:00 12,3 C 53 % 1006,8 hPa 0,0 l/m 1,9 km/h (1 Bft) NO 1,00 h 0,000 mm 2,0 UV-I 435 W/m 3,1 C 12,3 C 4,0 km/h (1 Bft) 0,00 %
24.03.2015 15:00 12,9 C 52 % 1006,2 hPa 0,0 l/m 3,7 km/h (1 Bft) O 1,00 h 0,000 mm 1,7 UV-I 455 W/m 3,2 C 12,9 C 6,9 km/h (2 Bft) 0,00 %
24.03.2015 16:00 13,6 C 46 % 1005,8 hPa 0,0 l/m 3,0 km/h (1 Bft) O 1,00 h 0,000 mm 1,0 UV-I 454 W/m 2,2 C 13,6 C 4,9 km/h (1 Bft) 0,00 %
24.03.2015 17:00 12,6 C 50 % 1005,4 hPa 0,0 l/m 0,4 km/h (0 Bft) SO 1,00 h 0,000 mm 1,0 UV-I 341 W/m 2,4 C 12,6 C 1,0 km/h (0 Bft) 0,00 %
24.03.2015 18:00 10,6 C 56 % 1005,8 hPa 0,0 l/m 0,1 km/h (0 Bft) N 0,25 h 0,000 mm 0,0 UV-I 5 W/m 2,0 C 10,6 C 1,0 km/h (0 Bft) 0,00 %
24.03.2015 19:00 8,7 C 62 % 1006,2 hPa 0,0 l/m 0,0 km/h (0 Bft) N 0,00 h 0,000 mm 0,0 UV-I 0 W/m 1,8 C 8,7 C 0,0 km/h (0 Bft) 0,00 %
24.03.2015 20:00 7,9 C 63 % 1006,4 hPa 0,0 l/m 0,0 km/h (0 Bft) N 0,00 h 0,000 mm 0,0 UV-I 0 W/m 1,3 C 7,9 C 0,0 km/h (0 Bft) 0,00 %
24.03.2015 21:00 5,9 C 72 % 1006,8 hPa 0,0 l/m 0,0 km/h (0 Bft) N 0,00 h 0,000 mm 0,0 UV-I 0 W/m 1,2 C 5,9 C 0,0 km/h (0 Bft) 0,00 %
24.03.2015 22:00 4,9 C 78 % 1007,2 hPa 0,0 l/m 0,0 km/h (0 Bft) N 0,00 h 0,000 mm 0,0 UV-I 0 W/m 1,4 C 4,9 C 0,0 km/h (0 Bft) 0,00 %
24.03.2015 23:00 4,1 C 83 % 1006,9 hPa 0,0 l/m 0,0 km/h (0 Bft) N 0,00 h 0,000 mm 0,0 UV-I 0 W/m 1,5 C 4,1 C 0,0 km/h (0 Bft) 0,00 %
25.03.2015 00:00 3,3 C 85 % 1006,8 hPa 0,0 l/m 0,0 km/h (0 Bft) N 0,00 h 0,000 mm 0,0 UV-I 0 W/m 1,0 C 3,3 C 0,0 km/h (0 Bft) 0,00 %
25.03.2015 01:00 2,9 C 86 % 1006,7 hPa 0,0 l/m 0,0 km/h (0 Bft) N 0,00 h 0,000 mm 0,0 UV-I 0 W/m 0,8 C 2,9 C 0,0 km/h (0 Bft) 0,00 %
25.03.2015 02:00 2,8 C 85 % 1006,1 hPa 0,0 l/m 0,0 km/h (0 Bft) N 0,00 h 0,000 mm 0,0 UV-I 0 W/m 0,5 C 2,8 C 0,0 km/h (0 Bft) 0,00 %
25.03.2015 03:00 2,3 C 82 % 1006,0 hPa 0,0 l/m 0,0 km/h (0 Bft) N 0,00 h 0,000 mm 0,0 UV-I 0 W/m -0,5 C 2,3 C 0,0 km/h (0 Bft) 0,00 %
25.03.2015 04:00 1,4 C 84 % 1005,9 hPa 0,0 l/m 0,0 km/h (0 Bft) N 0,00 h 0,000 mm 0,0 UV-I 0 W/m -1,0 C 1,4 C 0,0 km/h (0 Bft) 0,00 %
25.03.2015 05:00 1,4 C 85 % 1005,6 hPa 0,0 l/m 0,0 km/h (0 Bft) N 0,00 h 0,000 mm 0,0 UV-I 0 W/m -0,9 C 1,4 C 0,0 km/h (0 Bft) 0,00 %
25.03.2015 06:00 2,0 C 85 % 1005,3 hPa 0,0 l/m 0,6 km/h (0 Bft) O-SO 0,50 h 0,000 mm 1,0 UV-I 48 W/m -0,2 C 2,0 C 1,0 km/h (0 Bft) 0,00 %
25.03.2015 07:00 4,5 C 78 % 1004,7 hPa 0,0 l/m 0,2 km/h (0 Bft) O-SO 0,25 h 0,000 mm 1,0 UV-I 137 W/m 0,9 C 4,5 C 2,0 km/h (1 Bft) 0,00 %
25.03.2015 08:00 5,5 C 73 % 1004,1 hPa 0,0 l/m 2,7 km/h (1 Bft) O-SO 0,00 h 0,000 mm 2,0 UV-I 199 W/m 1,1 C 5,5 C 5,0 km/h (1 Bft) 0,00 %
25.03.2015 09:00 7,4 C 70 % 1003,6 hPa 0,0 l/m 3,6 km/h (1 Bft) O 0,00 h 0,000 mm 2,0 UV-I 245 W/m 2,3 C 6,9 C 5,9 km/h (2 Bft) 0,00 %
25.03.2015 10:00 9,4 C 62 % 1002,7 hPa 0,0 l/m 9,6 km/h (2 Bft) O 0,00 h 0,000 mm 3,0 UV-I 302 W/m 2,6 C 7,2 C 12,9 km/h (3 Bft) 0,00 %
25.03.2015 11:00 10,3 C 60 % 1001,7 hPa 0,0 l/m 12,2 km/h (2 Bft) O 0,00 h 0,000 mm 2,7 UV-I 294 W/m 2,8 C 6,8 C 14,9 km/h (3 Bft) 0,00 %
25.03.2015 12:00 11,0 C 59 % 1001,0 hPa 0,0 l/m 8,9 km/h (2 Bft) O-SO 0,00 h 0,000 mm 3,0 UV-I 297 W/m 3,3 C 9,1 C 12,9 km/h (3 Bft) 0,00 %
25.03.2015 13:00 12,3 C 55 % 1000,0 hPa 0,0 l/m 13,4 km/h (3 Bft) O 0,00 h 0,000 mm 2,0 UV-I 283 W/m 3,5 C 8,7 C 20,0 km/h (4 Bft) 0,00 %
25.03.2015 14:00 13,5 C 52 % 999,3 hPa 0,0 l/m 19,9 km/h (4 Bft) O 0,00 h 0,000 mm 2,0 UV-I 251 W/m 3,7 C 8,0 C 26,0 km/h (4 Bft) 0,00 %
25.03.2015 15:00 13,9 C 48 % 998,8 hPa 0,0 l/m 13,3 km/h (3 Bft) S 0,00 h 0,000 mm 1,0 UV-I 140 W/m 3,1 C 10,6 C 19,9 km/h (4 Bft) 0,00 %
25.03.2015 16:00 13,7 C 45 % 998,7 hPa 0,0 l/m 14,3 km/h (3 Bft) O-SO 0,00 h 0,000 mm 1,0 UV-I 85 W/m 1,8 C 10,0 C 20,9 km/h (4 Bft) 0,00 %
25.03.2015 17:00 12,8 C 49 % 999,2 hPa 0,0 l/m 9,5 km/h (2 Bft) O-NO 0,00 h 0,000 mm 0,0 UV-I 21 W/m 2,2 C 10,8 C 12,9 km/h (3 Bft) 0,00 %
25.03.2015 18:00 11,9 C 52 % 999,7 hPa 0,0 l/m 10,0 km/h (2 Bft) O-SO 0,00 h 0,000 mm 0,0 UV-I 0 W/m 2,3 C 9,9 C 12,8 km/h (3 Bft) 0,00 %
25.03.2015 19:00 11,4 C 58 % 999,7 hPa 0,0 l/m 12,1 km/h (2 Bft) O-SO 0,00 h 0,000 mm 0,0 UV-I 0 W/m 3,4 C 8,1 C 17,8 km/h (3 Bft) 0,00 %
25.03.2015 20:00 10,9 C 59 % 999,7 hPa 0,0 l/m 15,6 km/h (3 Bft) O-NO 0,00 h 0,000 mm 0,0 UV-I 0 W/m 3,3 C 6,4 C 20,0 km/h (4 Bft) 0,00 %
25.03.2015 21:00 10,6 C 59 % 999,4 hPa 0,0 l/m 11,4 km/h (2 Bft) O 0,00 h 0,000 mm 0,0 UV-I 0 W/m 2,9 C 7,7 C 16,9 km/h (3 Bft) 0,00 %
25.03.2015 22:00 10,1 C 62 % 999,3 hPa 0,0 l/m 17,1 km/h (3 Bft) O 0,00 h 0,000 mm 0,0 UV-I 0 W/m 3,1 C 4,7 C 21,0 km/h (4 Bft) 0,00 %
25.03.2015 23:00 9,8 C 64 % 999,5 hPa 0,0 l/m 14,9 km/h (3 Bft) O 0,00 h 0,000 mm 0,0 UV-I 0 W/m 3,4 C 5,1 C 21,0 km/h (4 Bft) 0,00 %
26.03.2015 00:00 9,6 C 68 % 999,7 hPa 0,0 l/m 10,5 km/h (2 Bft) O-NO 0,00 h 0,000 mm 0,0 UV-I 0 W/m 4,0 C 6,9 C 14,9 km/h (3 Bft) 0,00 %
26.03.2015 01:00 8,9 C 71 % 1000,0 hPa 0,0 l/m 7,3 km/h (2 Bft) O 0,00 h 0,000 mm 0,0 UV-I 0 W/m 4,0 C 7,8 C 9,9 km/h (2 Bft) 0,00 %
26.03.2015 02:00 8,1 C 76 % 1000,2 hPa 0,0 l/m 1,9 km/h (1 Bft) O-SO 0,00 h 0,000 mm 0,0 UV-I 0 W/m 4,1 C 8,1 C 4,0 km/h (1 Bft) 0,00 %
26.03.2015 03:00 7,2 C 81 % 1000,6 hPa 0,0 l/m 0,3 km/h (0 Bft) N 0,00 h 0,000 mm 0,0 UV-I 0 W/m 4,1 C 7,2 C 1,0 km/h (0 Bft) 0,00 %
26.03.2015 04:00 5,8 C 86 % 1001,8 hPa 0,0 l/m 0,0 km/h (0 Bft) N 0,00 h 0,000 mm 0,0 UV-I 0 W/m 3,5 C 5,8 C 0,0 km/h (0 Bft) 0,00 %
26.03.2015 05:00 5,4 C 87 % 1002,9 hPa 0,0 l/m 0,0 km/h (0 Bft) N 0,00 h 0,000 mm 0,0 UV-I 0 W/m 3,5 C 5,4 C 0,0 km/h (0 Bft) 0,00 %
26.03.2015 06:00 5,6 C 86 % 1003,9 hPa 0,0 l/m 0,0 km/h (0 Bft) W-SW 0,00 h 0,000 mm 1,0 UV-I 15 W/m 3,4 C 5,6 C 0,0 km/h (0 Bft) 0,00 %
26.03.2015 07:00 7,2 C 78 % 1004,8 hPa 0,0 l/m 1,3 km/h (1 Bft) W-SW 0,00 h 0,000 mm 1,0 UV-I 94 W/m 3,7 C 7,2 C 3,0 km/h (1 Bft) 0,00 %
26.03.2015 08:00 9,1 C 71 % 1005,4 hPa 0,0 l/m 2,2 km/h (1 Bft) S-SW 0,00 h 0,000 mm 1,7 UV-I 160 W/m 4,2 C 9,1 C 5,0 km/h (1 Bft) 0,00 %
26.03.2015 09:00 9,7 C 68 % 1006,0 hPa 0,0 l/m 0,3 km/h (0 Bft) W-SW 0,00 h 0,000 mm 1,0 UV-I 113 W/m 4,1 C 9,7 C 1,0 km/h (0 Bft) 0,00 %
26.03.2015 10:00 10,1 C 67 % 1006,3 hPa 0,0 l/m 1,1 km/h (0 Bft) W-SW 0,00 h 0,000 mm 1,7 UV-I 186 W/m 4,2 C 10,1 C 2,0 km/h (1 Bft) 0,00 %
26.03.2015 11:00 10,1 C 68 % 1006,4 hPa 0,0 l/m 1,4 km/h (1 Bft) W-SW 0,00 h 0,000 mm 2,0 UV-I 172 W/m 4,4 C 10,1 C 3,0 km/h (1 Bft) 0,00 %
26.03.2015 12:00 10,4 C 65 % 1006,4 hPa 0,0 l/m 0,0 km/h (0 Bft) N 0,00 h 0,000 mm 1,0 UV-I 129 W/m 4,0 C 10,4 C 0,0 km/h (0 Bft) 0,00 %
26.03.2015 13:00 9,7 C 69 % 1006,4 hPa 0,0 l/m 0,7 km/h (0 Bft) W-SW 0,00 h 0,000 mm 1,0 UV-I 117 W/m 4,2 C 9,7 C 2,0 km/h (1 Bft) 0,00 %
26.03.2015 14:00 9,6 C 66 % 1006,1 hPa 0,0 l/m 2,3 km/h (1 Bft) SW 0,00 h 0,000 mm 1,0 UV-I 120 W/m 3,5 C 9,6 C 5,0 km/h (1 Bft) 0,00 %
26.03.2015 15:00 9,4 C 65 % 1006,1 hPa 0,0 l/m 0,2 km/h (0 Bft) N 0,00 h 0,000 mm 1,0 UV-I 91 W/m 3,2 C 9,4 C 1,0 km/h (0 Bft) 0,00 %
26.03.2015 16:00 8,9 C 67 % 1006,5 hPa 0,0 l/m 0,0 km/h (0 Bft) N 0,00 h 0,000 mm 0,0 UV-I 37 W/m 3,1 C 8,9 C 0,0 km/h (0 Bft) 0,00 %
26.03.2015 17:00 8,2 C 71 % 1007,0 hPa 0,0 l/m 0,2 km/h (0 Bft) W-SW 0,00 h 0,000 mm 0,0 UV-I 6 W/m 3,3 C 8,2 C 1,0 km/h (0 Bft) 0,00 %
26.03.2015 18:00 7,7 C 74 % 1007,8 hPa 0,0 l/m 0,4 km/h (0 Bft) N 0,00 h 0,000 mm 0,0 UV-I 0 W/m 3,4 C 7,7 C 1,0 km/h (0 Bft) 0,00 %
26.03.2015 19:00 7,1 C 78 % 1008,5 hPa 0,0 l/m 0,0 km/h (0 Bft) N 0,00 h 0,000 mm 0,0 UV-I 0 W/m 3,6 C 7,1 C 0,0 km/h (0 Bft) 0,00 %
26.03.2015 20:00 6,7 C 81 % 1009,2 hPa 0,0 l/m 0,0 km/h (0 Bft) N 0,00 h 0,000 mm 0,0 UV-I 0 W/m 3,6 C 6,7 C 0,0 km/h (0 Bft) 0,00 %
26.03.2015 21:00 6,2 C 85 % 1009,4 hPa 0,3 l/m 0,2 km/h (0 Bft) N 0,00 h 0,000 mm 0,0 UV-I 0 W/m 3,8 C 6,2 C 1,0 km/h (0 Bft) 0,00 %
26.03.2015 22:00 5,8 C 87 % 1009,9 hPa 0,6 l/m 0,4 km/h (0 Bft) SW 0,00 h 0,000 mm 0,0 UV-I 0 W/m 3,8 C 5,8 C 2,0 km/h (1 Bft) 0,00 %
26.03.2015 23:00 5,5 C 87 % 1010,2 hPa 0,6 l/m 1,8 km/h (1 Bft) SW 0,00 h 0,000 mm 0,0 UV-I 0 W/m 3,5 C 5,5 C 5,9 km/h (2 Bft) 0,00 %
27.03.2015 00:00 5,1 C 86 % 1010,8 hPa 0,9 l/m 1,1 km/h (1 Bft) S-SW 0,00 h 0,000 mm 0,0 UV-I 0 W/m 2,9 C 5,1 C 4,0 km/h (1 Bft) 0,00 %
27.03.2015 01:00 4,8 C 86 % 1010,9 hPa 0,6 l/m 1,5 km/h (1 Bft) W-SW 0,00 h 0,000 mm 0,0 UV-I 0 W/m 2,7 C 4,8 C 3,0 km/h (1 Bft) 0,00 %
27.03.2015 02:00 4,8 C 87 % 1011,1 hPa 0,9 l/m 0,1 km/h (0 Bft) N 0,00 h 0,000 mm 0,0 UV-I 0 W/m 2,7 C 4,8 C 1,0 km/h (0 Bft) 0,00 %
27.03.2015 03:00 4,7 C 86 % 1011,1 hPa 1,5 l/m 0,1 km/h (0 Bft) N 0,00 h 0,000 mm 0,0 UV-I 0 W/m 2,6 C 4,7 C 1,0 km/h (0 Bft) 0,00 %
27.03.2015 04:00 4,4 C 87 % 1011,5 hPa 0,3 l/m 2,1 km/h (1 Bft) W-SW 0,00 h 0,000 mm 0,0 UV-I 0 W/m 2,4 C 4,4 C 3,0 km/h (1 Bft) 0,00 %
27.03.2015 05:00 4,2 C 88 % 1012,5 hPa 1,2 l/m 2,1 km/h (1 Bft) W-SW 0,00 h 0,000 mm 0,0 UV-I 0 W/m 2,4 C 4,2 C 4,0 km/h (1 Bft) 0,00 %
27.03.2015 06:00 4,1 C 88 % 1013,3 hPa 0,3 l/m 2,6 km/h (1 Bft) SW 0,00 h 0,000 mm 0,0 UV-I 12 W/m 2,2 C 4,1 C 5,9 km/h (2 Bft) 0,00 %
27.03.2015 07:00 4,1 C 86 % 1014,1 hPa 0,3 l/m 3,6 km/h (1 Bft) W-SW 0,50 h 0,000 mm 1,0 UV-I 71 W/m 1,9 C 4,0 C 4,9 km/h (1 Bft) 0,00 %
27.03.2015 08:00 4,4 C 85 % 1014,7 hPa 0,0 l/m 0,7 km/h (0 Bft) W-SW 0,00 h 0,000 mm 1,0 UV-I 69 W/m 2,1 C 4,4 C 1,0 km/h (0 Bft) 0,00 %
27.03.2015 09:00 5,6 C 82 % 1015,0 hPa 0,0 l/m 2,8 km/h (1 Bft) W-SW 0,00 h 0,000 mm 1,0 UV-I 127 W/m 2,7 C 5,3 C 5,0 km/h (1 Bft) 0,00 %
27.03.2015 10:00 6,1 C 77 % 1015,5 hPa 0,0 l/m 2,8 km/h (1 Bft) W-SW 0,00 h 0,000 mm 2,0 UV-I 144 W/m 2,4 C 6,0 C 4,0 km/h (1 Bft) 0,00 %
27.03.2015 11:00 7,4 C 70 % 1015,3 hPa 0,0 l/m 7,4 km/h (2 Bft) W-SW 0,00 h 0,000 mm 2,0 UV-I 265 W/m 2,3 C 5,9 C 11,9 km/h (2 Bft) 0,00 %
27.03.2015 12:00 7,7 C 67 % 1015,4 hPa 0,0 l/m 4,8 km/h (1 Bft) SW 0,00 h 0,000 mm 1,7 UV-I 198 W/m 1,9 C 6,7 C 7,9 km/h (2 Bft) 0,00 %
27.03.2015 13:00 7,0 C 73 % 1015,6 hPa 0,3 l/m 4,3 km/h (1 Bft) W-SW 0,00 h 0,000 mm 2,3 UV-I 207 W/m 2,4 C 6,4 C 6,9 km/h (2 Bft) 0,00 %
27.03.2015 14:00 8,0 C 70 % 1015,5 hPa 0,0 l/m 0,7 km/h (0 Bft) S 0,00 h 0,000 mm 2,0 UV-I 249 W/m 2,8 C 8,0 C 2,0 km/h (1 Bft) 0,00 %
27.03.2015 15:00 8,1 C 59 % 1015,7 hPa 0,0 l/m 3,0 km/h (1 Bft) S-SW 0,00 h 0,000 mm 1,0 UV-I 147 W/m 0,5 C 8,1 C 6,9 km/h (2 Bft) 0,00 %
27.03.2015 16:00 7,6 C 59 % 1016,4 hPa 0,0 l/m 2,8 km/h (1 Bft) O-SO 0,00 h 0,000 mm 1,0 UV-I 121 W/m -0,0 C 7,6 C 6,9 km/h (2 Bft) 0,00 %
27.03.2015 17:00 6,3 C 70 % 1017,4 hPa 0,0 l/m 2,3 km/h (1 Bft) NO 0,00 h 0,000 mm 1,0 UV-I 52 W/m 1,3 C 6,3 C 5,0 km/h (1 Bft) 0,00 %
27.03.2015 18:00 5,6 C 73 % 1018,6 hPa 0,0 l/m 3,8 km/h (1 Bft) W-SW 0,00 h 0,000 mm 0,0 UV-I 6 W/m 1,2 C 5,6 C 6,9 km/h (2 Bft) 0,00 %
27.03.2015 19:00 5,4 C 74 % 1019,6 hPa 0,0 l/m 3,4 km/h (1 Bft) S 0,00 h 0,000 mm 0,0 UV-I 0 W/m 1,1 C 5,4 C 6,9 km/h (2 Bft) 0,00 %
27.03.2015 20:00 5,6 C 72 % 1020,5 hPa 0,0 l/m 0,6 km/h (0 Bft) SW 0,00 h 0,000 mm 0,0 UV-I 0 W/m 0,9 C 5,6 C 2,0 km/h (1 Bft) 0,00 %
27.03.2015 21:00 5,3 C 73 % 1021,0 hPa 0,0 l/m 1,7 km/h (1 Bft) W-SW 0,00 h 0,000 mm 0,0 UV-I 0 W/m 0,9 C 5,3 C 4,0 km/h (1 Bft) 0,00 %
27.03.2015 22:00 5,2 C 71 % 1021,7 hPa 0,0 l/m 0,4 km/h (0 Bft) N 0,00 h 0,000 mm 0,0 UV-I 0 W/m 0,4 C 5,2 C 3,0 km/h (1 Bft) 0,00 %
27.03.2015 23:00 4,8 C 72 % 1021,9 hPa 0,0 l/m 0,4 km/h (0 Bft) N 0,00 h 0,000 mm 0,0 UV-I 0 W/m 0,2 C 4,8 C 3,0 km/h (1 Bft) 0,00 %
28.03.2015 00:00 4,6 C 73 % 1022,0 hPa 0,0 l/m 0,3 km/h (0 Bft) N 0,00 h 0,000 mm 0,0 UV-I 0 W/m 0,2 C 4,6 C 2,0 km/h (1 Bft) 0,00 %
28.03.2015 01:00 4,4 C 74 % 1022,1 hPa 0,0 l/m 0,2 km/h (0 Bft) N 0,00 h 0,000 mm 0,0 UV-I 0 W/m 0,1 C 4,4 C 1,0 km/h (0 Bft) 0,00 %
28.03.2015 02:00 4,4 C 74 % 1022,0 hPa 0,0 l/m 0,2 km/h (0 Bft) N 0,00 h 0,000 mm 0,0 UV-I 0 W/m 0,1 C 4,4 C 1,0 km/h (0 Bft) 0,00 %
28.03.2015 03:00 4,4 C 74 % 1022,2 hPa 0,0 l/m 1,2 km/h (1 Bft) SW 0,00 h 0,000 mm 0,0 UV-I 0 W/m 0,1 C 4,4 C 3,0 km/h (1 Bft) 0,00 %
28.03.2015 04:00 4,2 C 75 % 1022,2 hPa 0,0 l/m 0,5 km/h (0 Bft) W-SW 0,00 h 0,000 mm 0,0 UV-I 0 W/m 0,1 C 4,2 C 2,0 km/h (1 Bft) 0,00 %
28.03.2015 05:00 3,8 C 75 % 1022,4 hPa 0,0 l/m 0,1 km/h (0 Bft) N 0,00 h 0,000 mm 0,0 UV-I 0 W/m -0,2 C 3,8 C 1,0 km/h (0 Bft) 0,00 %
28.03.2015 06:00 4,1 C 74 % 1022,7 hPa 0,0 l/m 0,3 km/h (0 Bft) N 0,00 h 0,000 mm 1,0 UV-I 20 W/m -0,1 C 4,1 C 2,0 km/h (1 Bft) 0,00 %
28.03.2015 07:00 4,9 C 71 % 1022,8 hPa 0,0 l/m 0,1 km/h (0 Bft) W-SW 0,75 h 0,000 mm 1,0 UV-I 83 W/m 0,0 C 4,9 C 1,0 km/h (0 Bft) 0,00 %
28.03.2015 08:00 6,8 C 61 % 1022,4 hPa 0,0 l/m 4,0 km/h (1 Bft) W-SW 1,00 h 0,000 mm 2,0 UV-I 200 W/m -0,2 C 5,6 C 6,9 km/h (2 Bft) 0,00 %
28.03.2015 09:00 8,1 C 55 % 1022,1 hPa 0,0 l/m 1,3 km/h (1 Bft) W-SW 1,00 h 0,000 mm 3,0 UV-I 283 W/m -0,4 C 8,1 C 4,0 km/h (1 Bft) 0,00 %
28.03.2015 10:00 9,1 C 50 % 1021,3 hPa 0,0 l/m 3,5 km/h (1 Bft) W-SW 0,75 h 0,000 mm 3,3 UV-I 304 W/m -0,7 C 8,4 C 5,0 km/h (1 Bft) 0,00 %
28.03.2015 11:00 9,0 C 44 % 1020,5 hPa 0,0 l/m 2,7 km/h (1 Bft) SW 0,00 h 0,000 mm 2,0 UV-I 219 W/m -2,6 C 9,0 C 5,9 km/h (2 Bft) 0,00 %
28.03.2015 12:00 9,0 C 47 % 1019,9 hPa 0,0 l/m 4,0 km/h (1 Bft) W-SW 0,25 h 0,000 mm 3,3 UV-I 330 W/m -1,7 C 8,9 C 6,9 km/h (2 Bft) 0,00 %
28.03.2015 13:00 9,1 C 48 % 1019,0 hPa 0,0 l/m 1,1 km/h (0 Bft) SW 0,00 h 0,000 mm 2,7 UV-I 230 W/m -1,3 C 9,1 C 3,0 km/h (1 Bft) 0,00 %
28.03.2015 14:00 9,7 C 45 % 1017,2 hPa 0,0 l/m 1,2 km/h (1 Bft) W 0,25 h 0,000 mm 2,0 UV-I 317 W/m -1,6 C 9,7 C 3,0 km/h (1 Bft) 0,00 %
28.03.2015 15:00 9,9 C 43 % 1016,3 hPa 0,0 l/m 0,8 km/h (0 Bft) SW 1,00 h 0,000 mm 2,0 UV-I 515 W/m -2,2 C 9,9 C 3,0 km/h (1 Bft) 0,00 %
28.03.2015 16:00 10,5 C 39 % 1015,5 hPa 0,0 l/m 1,3 km/h (1 Bft) N 1,00 h 0,000 mm 1,0 UV-I 463 W/m -2,9 C 10,5 C 4,0 km/h (1 Bft) 0,00 %
28.03.2015 17:00 9,6 C 43 % 1015,6 hPa 0,0 l/m 0,2 km/h (0 Bft) N 1,00 h 0,000 mm 1,0 UV-I 242 W/m -2,4 C 9,6 C 1,0 km/h (0 Bft) 0,00 %
28.03.2015 18:00 6,9 C 53 % 1016,3 hPa 0,0 l/m 0,0 km/h (0 Bft) N 0,00 h 0,000 mm 0,0 UV-I 8 W/m -2,1 C 6,9 C 0,0 km/h (0 Bft) 0,00 %
28.03.2015 19:00 4,8 C 62 % 1016,8 hPa 0,0 l/m 0,0 km/h (0 Bft) N 0,00 h 0,000 mm 0,0 UV-I 0 W/m -1,8 C 4,8 C 0,0 km/h (0 Bft) 0,00 %
28.03.2015 20:00 2,8 C 72 % 1016,9 hPa 0,0 l/m 0,0 km/h (0 Bft) N 0,00 h 0,000 mm 0,0 UV-I 0 W/m -1,7 C 2,8 C 0,0 km/h (0 Bft) 0,00 %
28.03.2015 21:00 2,4 C 70 % 1016,5 hPa 0,0 l/m 0,0 km/h (0 Bft) N 0,00 h 0,000 mm 0,0 UV-I 0 W/m -2,5 C 2,4 C 0,0 km/h (0 Bft) 0,00 %
28.03.2015 22:00 2,3 C 72 % 1016,0 hPa 0,0 l/m 0,0 km/h (0 Bft) N 0,00 h 0,000 mm 0,0 UV-I 0 W/m -2,2 C 2,3 C 0,0 km/h (0 Bft) 0,00 %
28.03.2015 23:00 2,4 C 75 % 1015,7 hPa 0,0 l/m 0,0 km/h (0 Bft) N 0,00 h 0,000 mm 0,0 UV-I 0 W/m -1,6 C 2,4 C 0,0 km/h (0 Bft) 0,00 %
29.03.2015 23:00 3,1 C 74 % 1015,4 hPa 0,0 l/m 0,0 km/h (0 Bft) NW 0,00 h 0,000 mm 0,0 UV-I 0 W/m -1,1 C 3,1 C 0,0 km/h (0 Bft) 0,00 %
Min-Datum _ 24.03.15 28.03.15 25.03.15 - 23.03.15 - - - - - 23.03.15 23.03.15 23.03.15 23.03.15
_ Min-Zeit 06:00 16:15 16:00 - 00:00 - - - - - 06:30 02:45 00:00 00:00
Minimum _ -1,4 C 36 % 998,6 hPa - 0,0 km/h (0 Bft) - - - - - -4,2 C -6,2 C 0,0 km/h (0 Bft) 0,00 %
Max-Datum _ 25.03.15 24.03.15 28.03.15 27.03.15 25.03.15 - 23.03.15 23.03.15 24.03.15 24.03.15 26.03.15 24.03.15 25.03.15 23.03.15
_ Max-Zeit 15:00 03:15 06:15 03:15 14:15 - 13:45 00:00 11:45 13:00 11:15 16:15 14:15 00:00
Maximum _ 13,9 C 88 % 1023,0 hPa 1,5 l/m 25,9 km/h
O (4 Bft)
- 0,25 h 0,000 mm 4,0 UV-I 628 W/m 4,7 C 13,7 C 36,0 km/h
O (5 Bft)
0,00 %
Durchschnitt _ 6,1 C 71 % 1011,3 hPa #7,8 l/m 2,7 km/h (1 Bft) W-SW #18:45 h #0,000 mm 1,8 UV-I 193 W/m 0,9 C 5,6 C 4,4 km/h (1 Bft) 0,00 %